createdAt,value
2022-12-31T00:02:19.795Z,101924.47
2022-12-31T00:04:48.920Z,101923.88
2022-12-31T00:07:16.534Z,101918.66
2022-12-31T00:09:44.297Z,101917.91
2022-12-31T00:12:12.315Z,101929.63
2022-12-31T00:14:40.443Z,101923.19
2022-12-31T00:17:08.507Z,101934.72
2022-12-31T00:19:36.551Z,101938.06
2022-12-31T00:22:05.588Z,101944.53
2022-12-31T00:24:33.733Z,101938.84
2022-12-31T00:27:01.663Z,101942.13
2022-12-31T00:29:29.278Z,101939.25
2022-12-31T00:31:56.992Z,101941.13
2022-12-31T00:34:25.079Z,101944.50
2022-12-31T00:36:53.311Z,101936.63
2022-12-31T00:39:22.725Z,101935.81
2022-12-31T00:41:50.512Z,101940.16
2022-12-31T00:44:18.359Z,101945.91
2022-12-31T00:46:46.075Z,101940.03
2022-12-31T00:49:13.781Z,101947.22
2022-12-31T00:51:41.563Z,101951.06
2022-12-31T00:54:09.332Z,101951.38
2022-12-31T00:56:39.295Z,101953.00
2022-12-31T00:59:06.968Z,101956.50
2022-12-31T01:01:36.863Z,101950.41
2022-12-31T01:04:07.501Z,101957.63
2022-12-31T01:06:36.664Z,101955.72
2022-12-31T01:09:05.005Z,101962.31
2022-12-31T01:11:33.824Z,101964.53
2022-12-31T01:14:06.829Z,101963.59
2022-12-31T01:16:37.351Z,101966.16
2022-12-31T01:19:09.293Z,101965.25
2022-12-31T01:21:38.599Z,101969.91
2022-12-31T01:24:07.333Z,101965.84
2022-12-31T01:26:35.827Z,101962.19
2022-12-31T01:29:05.645Z,101950.50
2022-12-31T01:31:34.072Z,101953.50
2022-12-31T01:34:03.101Z,101951.44
2022-12-31T01:36:32.684Z,101949.00
2022-12-31T01:39:01.718Z,101954.03
2022-12-31T01:41:31.247Z,101951.03
2022-12-31T01:44:00.747Z,101955.38
2022-12-31T01:46:36.805Z,101950.56
2022-12-31T01:49:09.488Z,101955.63
2022-12-31T01:51:40.810Z,101951.34
2022-12-31T01:54:10.792Z,101946.19
2022-12-31T01:56:41.885Z,101950.94
2022-12-31T01:59:11.147Z,101966.13
2022-12-31T02:01:40.241Z,101967.34
2022-12-31T02:04:12.130Z,101962.91
2022-12-31T02:06:45.884Z,101966.25
2022-12-31T02:09:13.653Z,101977.50
2022-12-31T02:11:41.705Z,101978.34
2022-12-31T02:14:15.579Z,101970.78
2022-12-31T02:16:53.872Z,101974.44
2022-12-31T02:19:48.235Z,101980.41
2022-12-31T02:22:27.985Z,101972.28
2022-12-31T02:25:16.743Z,101982.19
2022-12-31T02:27:55.879Z,101993.81
2022-12-31T02:30:26.468Z,102003.47
2022-12-31T02:33:04.369Z,102000.19
2022-12-31T02:35:37.492Z,102007.38
2022-12-31T02:38:11.121Z,102002.53
2022-12-31T02:40:39.767Z,102012.59
2022-12-31T02:43:07.438Z,102015.31
2022-12-31T02:45:39.415Z,102017.53
2022-12-31T02:48:33.578Z,102024.50
2022-12-31T02:51:16.091Z,102025.25
2022-12-31T02:54:07.556Z,102023.69
2022-12-31T02:56:41.608Z,102027.47
2022-12-31T02:59:15.904Z,102023.72
2022-12-31T03:01:49.607Z,102032.66
2022-12-31T03:04:18.292Z,102025.63
2022-12-31T03:06:46.875Z,102020.31
2022-12-31T03:09:16.544Z,102032.06
2022-12-31T03:11:44.449Z,102034.16
2022-12-31T03:14:12.270Z,102038.22
2022-12-31T03:16:40.079Z,102040.63
2022-12-31T03:19:09.261Z,102039.72
2022-12-31T03:21:39.166Z,102044.41
2022-12-31T03:24:07.107Z,102039.19
2022-12-31T03:26:35.003Z,102033.91
2022-12-31T03:29:02.666Z,102034.03
2022-12-31T03:31:30.512Z,102030.00
2022-12-31T03:33:58.297Z,102042.66
2022-12-31T03:36:27.487Z,102050.56
2022-12-31T03:38:55.174Z,102049.03
2022-12-31T03:41:24.505Z,102049.72
2022-12-31T03:43:52.280Z,102047.31
2022-12-31T03:46:20.176Z,102049.09
2022-12-31T03:48:50.136Z,102039.53
2022-12-31T03:51:17.872Z,102045.75
2022-12-31T03:53:46.839Z,102048.88
2022-12-31T03:56:14.714Z,102053.00
2022-12-31T03:58:42.431Z,102064.25
2022-12-31T04:01:10.086Z,102058.16
2022-12-31T04:03:37.945Z,102063.75
2022-12-31T04:06:05.930Z,102060.66
2022-12-31T04:08:33.576Z,102062.00
2022-12-31T04:11:02.881Z,102059.28
2022-12-31T04:13:30.700Z,102064.56
2022-12-31T04:15:58.255Z,102066.72
2022-12-31T04:18:25.973Z,102064.31
2022-12-31T04:20:53.706Z,102053.00
2022-12-31T04:23:21.328Z,102075.38
2022-12-31T04:25:49.198Z,102068.38
2022-12-31T04:28:18.285Z,102064.44
2022-12-31T04:30:45.972Z,102065.94
2022-12-31T04:33:13.783Z,102065.09
2022-12-31T04:35:41.473Z,102068.63
2022-12-31T04:38:09.157Z,102067.50
2022-12-31T04:40:36.902Z,102078.94
2022-12-31T04:43:04.703Z,102090.63
2022-12-31T04:45:33.895Z,102083.81
2022-12-31T04:48:01.616Z,102080.28
2022-12-31T04:50:29.467Z,102082.84
2022-12-31T04:52:57.449Z,102087.09
2022-12-31T04:55:28.201Z,102084.22
2022-12-31T04:57:55.997Z,102091.09
2022-12-31T05:00:23.725Z,102089.78
2022-12-31T05:02:56.534Z,102083.75
2022-12-31T05:05:24.380Z,102080.84
2022-12-31T05:07:52.112Z,102096.53
2022-12-31T05:10:20.002Z,102101.19
2022-12-31T05:12:48.003Z,102092.19
2022-12-31T05:15:15.810Z,102097.16
2022-12-31T05:17:43.732Z,102100.66
2022-12-31T05:20:12.960Z,102104.00
2022-12-31T05:22:40.515Z,102107.78
2022-12-31T05:25:09.261Z,102105.88
2022-12-31T05:27:37.858Z,102096.28
2022-12-31T05:30:06.946Z,102095.53
2022-12-31T05:32:35.410Z,102107.31
2022-12-31T05:35:03.552Z,102131.63
2022-12-31T05:37:32.704Z,102126.41
2022-12-31T05:40:00.887Z,102128.38
2022-12-31T05:42:28.908Z,102138.53
2022-12-31T05:44:56.564Z,102139.88
2022-12-31T05:47:24.925Z,102146.28
2022-12-31T05:49:52.712Z,102146.50
2022-12-31T05:52:20.787Z,102144.34
2022-12-31T05:54:50.039Z,102150.78
2022-12-31T05:57:18.035Z,102153.34
2022-12-31T05:59:46.548Z,102162.09
2022-12-31T06:02:14.316Z,102167.72
2022-12-31T06:04:42.035Z,102163.97
2022-12-31T06:07:09.586Z,102178.09
2022-12-31T06:09:37.296Z,102177.25
2022-12-31T06:12:07.493Z,102177.41
2022-12-31T06:14:37.627Z,102185.59
2022-12-31T06:17:08.943Z,102192.06
2022-12-31T06:19:37.659Z,102195.72
2022-12-31T06:22:06.038Z,102201.38
2022-12-31T06:24:35.073Z,102207.94
2022-12-31T06:27:02.943Z,102206.94
2022-12-31T06:29:32.568Z,102209.44
2022-12-31T06:32:00.418Z,102212.97
2022-12-31T06:34:28.287Z,102214.19
2022-12-31T06:36:55.857Z,102221.41
2022-12-31T06:39:24.639Z,102222.44
2022-12-31T06:41:52.287Z,102215.13
2022-12-31T06:44:19.864Z,102215.56
2022-12-31T06:46:52.760Z,102209.28
2022-12-31T06:49:20.371Z,102227.81
2022-12-31T06:51:48.039Z,102230.91
2022-12-31T06:54:15.762Z,102238.97
2022-12-31T06:56:44.067Z,102232.03
2022-12-31T06:59:23.508Z,102240.66
2022-12-31T07:02:16.568Z,102242.25
2022-12-31T07:05:07.569Z,102238.41
2022-12-31T07:07:45.268Z,102236.22
2022-12-31T07:10:24.108Z,102242.81
2022-12-31T07:13:11.382Z,102248.09
2022-12-31T07:16:07.826Z,102243.47
2022-12-31T07:18:45.351Z,102253.50
2022-12-31T07:21:19.044Z,102255.59
2022-12-31T07:23:47.195Z,102255.84
2022-12-31T07:26:22.050Z,102255.41
2022-12-31T07:29:00.790Z,102237.38
2022-12-31T07:31:38.136Z,102254.66
2022-12-31T07:34:19.250Z,102258.44
2022-12-31T07:37:03.412Z,102257.31
2022-12-31T07:39:42.133Z,102261.03
2022-12-31T07:42:16.655Z,102258.06
2022-12-31T07:45:04.661Z,102270.53
2022-12-31T07:47:33.300Z,102281.28
2022-12-31T07:50:03.237Z,102289.59
2022-12-31T07:52:31.796Z,102290.72
2022-12-31T07:54:59.737Z,102296.34
2022-12-31T07:57:34.542Z,102304.03
2022-12-31T08:00:08.066Z,102305.16
2022-12-31T08:02:57.111Z,102303.53
2022-12-31T08:05:33.995Z,102320.34
2022-12-31T08:08:13.319Z,102314.47
2022-12-31T08:10:52.355Z,102308.63
2022-12-31T08:13:21.064Z,102303.88
2022-12-31T08:15:49.290Z,102309.34
2022-12-31T08:18:17.383Z,102307.97
2022-12-31T08:20:57.970Z,102307.63
2022-12-31T08:23:32.120Z,102303.00
2022-12-31T08:26:11.857Z,102293.91
2022-12-31T08:28:56.316Z,102285.72
2022-12-31T08:31:31.679Z,102272.97
2022-12-31T08:34:08.453Z,102268.16
2022-12-31T08:36:48.344Z,102244.00
2022-12-31T08:39:28.285Z,102256.69
2022-12-31T08:41:58.709Z,102250.88
2022-12-31T08:44:33.409Z,102256.41
2022-12-31T08:47:09.573Z,102254.88
2022-12-31T08:49:37.974Z,102250.59
2022-12-31T08:52:15.501Z,102253.28
2022-12-31T08:54:44.085Z,102252.50
2022-12-31T08:57:26.273Z,102249.97
2022-12-31T09:00:02.329Z,102258.75
2022-12-31T09:02:48.828Z,102252.78
2022-12-31T09:05:22.906Z,102237.28
2022-12-31T09:08:04.142Z,102230.53
2022-12-31T09:10:35.297Z,102214.13
2022-12-31T09:13:14.852Z,102222.88
2022-12-31T09:15:47.159Z,102222.94
2022-12-31T09:18:15.211Z,102215.16
2022-12-31T09:20:44.641Z,102210.88
2022-12-31T09:23:14.704Z,102215.28
2022-12-31T09:25:51.885Z,102197.91
2022-12-31T09:28:37.568Z,102204.09
2022-12-31T09:31:11.474Z,102202.41
2022-12-31T09:33:47.301Z,102197.25
2022-12-31T09:36:21.524Z,102179.00
2022-12-31T09:38:59.801Z,102174.66
2022-12-31T09:41:45.637Z,102168.59
2022-12-31T09:44:51.577Z,102176.47
2022-12-31T09:47:51.320Z,102164.31
2022-12-31T09:50:34.828Z,102160.00
2022-12-31T09:53:18.927Z,102150.41
2022-12-31T09:55:53.049Z,102159.16
2022-12-31T09:58:42.069Z,102145.19
2022-12-31T10:01:23.830Z,102141.69
2022-12-31T10:04:11.822Z,102135.56
2022-12-31T10:06:49.022Z,102130.34
2022-12-31T10:09:28.372Z,102148.66
2022-12-31T10:12:16.658Z,102152.13
2022-12-31T10:15:04.934Z,102136.41
2022-12-31T10:17:49.184Z,102131.13
2022-12-31T10:20:30.480Z,102121.47
2022-12-31T10:23:17.728Z,102115.31
2022-12-31T10:26:09.015Z,102110.78
2022-12-31T10:28:49.051Z,102122.19
2022-12-31T10:31:24.333Z,102124.81
2022-12-31T10:34:01.308Z,102117.75
2022-12-31T10:36:43.556Z,102126.53
2022-12-31T10:39:24.605Z,102117.78
2022-12-31T10:42:33.440Z,102109.06
2022-12-31T10:45:39.834Z,102132.66
2022-12-31T10:48:52.536Z,102121.25
2022-12-31T10:52:13.068Z,102108.06
2022-12-31T10:55:15.945Z,102110.72
2022-12-31T10:58:04.371Z,102102.81
2022-12-31T11:00:39.718Z,102116.78
2022-12-31T11:03:52.465Z,102114.16
2022-12-31T18:25:20.311Z,102249.06
2022-12-31T18:27:48.883Z,102244.63
2022-12-31T18:30:17.406Z,102243.59
2022-12-31T18:32:46.250Z,102236.63
2022-12-31T18:35:33.263Z,102233.28
2022-12-31T18:38:04.225Z,102232.56
2022-12-31T18:40:33.639Z,102227.00
2022-12-31T18:43:04.919Z,102219.91
2022-12-31T18:45:35.455Z,102217.31
2022-12-31T18:48:03.120Z,102210.41
2022-12-31T18:50:31.271Z,102215.53
2022-12-31T18:52:59.507Z,102209.44
2022-12-31T18:55:37.714Z,102194.16
2022-12-31T18:58:05.953Z,102200.66
2022-12-31T19:00:34.441Z,102192.84
2022-12-31T19:03:03.296Z,102204.19
2022-12-31T19:05:33.772Z,102194.56
2022-12-31T19:08:01.347Z,102190.34
2022-12-31T19:10:34.022Z,102187.75
2022-12-31T19:13:01.906Z,102184.25
2022-12-31T19:15:31.805Z,102187.38
2022-12-31T19:18:00.477Z,102186.56
2022-12-31T19:20:29.748Z,102186.97
2022-12-31T19:22:57.895Z,102188.28
2022-12-31T19:25:28.578Z,102179.69
2022-12-31T19:27:57.909Z,102186.66
2022-12-31T19:30:28.346Z,102186.22
2022-12-31T19:32:57.559Z,102189.03
2022-12-31T19:35:27.074Z,102188.00
2022-12-31T19:37:55.771Z,102190.00
2022-12-31T19:40:25.543Z,102190.06
2022-12-31T19:42:54.410Z,102177.16
2022-12-31T19:45:26.612Z,102186.00
2022-12-31T19:47:56.043Z,102185.19
2022-12-31T19:50:25.364Z,102179.16
2022-12-31T19:52:55.118Z,102172.94
2022-12-31T19:55:24.444Z,102169.97
2022-12-31T19:57:52.550Z,102171.63
2022-12-31T20:00:21.592Z,102174.44
2022-12-31T20:02:51.084Z,102162.22
2022-12-31T20:05:18.906Z,102169.75
2022-12-31T20:07:46.688Z,102163.75
2022-12-31T20:10:14.644Z,102173.38
2022-12-31T20:12:44.620Z,102180.34
2022-12-31T20:15:12.631Z,102175.25
2022-12-31T20:17:40.500Z,102178.75
2022-12-31T20:20:10.431Z,102177.84
2022-12-31T20:22:38.178Z,102186.22
2022-12-31T20:25:06.978Z,102185.34
2022-12-31T20:27:35.070Z,102189.69
2022-12-31T20:30:02.910Z,102180.97
2022-12-31T20:32:31.055Z,102199.78
2022-12-31T20:34:58.610Z,102193.84
2022-12-31T20:37:28.171Z,102208.38
2022-12-31T20:39:55.912Z,102202.25
2022-12-31T20:42:23.485Z,102208.81
2022-12-31T20:44:51.359Z,102204.41
2022-12-31T20:47:19.338Z,102198.38
2022-12-31T20:50:12.923Z,102197.34
2022-12-31T20:52:37.890Z,102189.38
2022-12-31T20:55:08.879Z,102186.69
2022-12-31T20:57:36.734Z,102190.25
2022-12-31T21:00:05.595Z,102193.69
2022-12-31T21:02:42.115Z,102203.66
2022-12-31T21:05:11.220Z,102194.09
2022-12-31T21:07:40.809Z,102202.00
2022-12-31T21:10:09.132Z,102183.91
2022-12-31T21:12:37.237Z,102183.56
2022-12-31T21:15:05.802Z,102185.00
2022-12-31T21:17:33.816Z,102193.41
2022-12-31T21:20:01.866Z,102203.81
2022-12-31T21:22:29.951Z,102204.19
2022-12-31T21:24:59.364Z,102203.31
2022-12-31T21:27:27.845Z,102209.47
2022-12-31T21:30:17.568Z,102216.91
2022-12-31T21:32:44.387Z,102221.31
2022-12-31T21:38:01.522Z,102226.47
2022-12-31T21:40:31.389Z,102213.34
2022-12-31T21:43:00.184Z,102232.75
2022-12-31T21:45:28.059Z,102232.13
2022-12-31T21:47:58.827Z,102223.88
2022-12-31T21:50:29.947Z,102239.59
2022-12-31T21:52:57.698Z,102225.53
2022-12-31T21:55:25.521Z,102230.91
2022-12-31T22:00:43.496Z,102221.34
2022-12-31T22:03:12.629Z,102221.13
2022-12-31T22:05:46.823Z,102218.16
2022-12-31T22:08:14.755Z,102182.25
2022-12-31T22:10:50.314Z,102190.13
2022-12-31T22:13:22.358Z,102181.75
2022-12-31T22:15:58.710Z,102184.16
2022-12-31T22:18:30.581Z,102182.97
2022-12-31T22:21:02.420Z,102176.88
2022-12-31T22:23:31.186Z,102174.53
2022-12-31T22:25:58.819Z,102175.75
2022-12-31T22:28:37.965Z,102177.28
2022-12-31T22:31:07.997Z,102177.31
2022-12-31T22:33:36.189Z,102181.00
2022-12-31T22:36:06.970Z,102178.72
2022-12-31T22:38:35.186Z,102179.09
2022-12-31T22:41:05.108Z,102177.06
2022-12-31T22:43:36.971Z,102162.16
2022-12-31T22:46:10.025Z,102174.66
2022-12-31T22:48:38.090Z,102181.19
2022-12-31T22:51:06.703Z,102172.25
2022-12-31T22:53:38.400Z,102176.13
2022-12-31T22:56:06.736Z,102177.47
2022-12-31T22:58:36.926Z,102189.56
2022-12-31T23:01:05.849Z,102189.63
2022-12-31T23:03:34.217Z,102192.41
2022-12-31T23:06:01.793Z,102180.41
2022-12-31T23:08:30.435Z,102177.22
2022-12-31T23:10:58.909Z,102183.84
2022-12-31T23:13:27.976Z,102185.91
2022-12-31T23:15:57.605Z,102183.31
2022-12-31T23:18:25.631Z,102175.91
2022-12-31T23:20:53.215Z,102181.28
2022-12-31T23:23:21.147Z,102172.16
2022-12-31T23:25:50.716Z,102168.72
2022-12-31T23:28:20.809Z,102156.91
2022-12-31T23:30:50.343Z,102151.56
2022-12-31T23:33:21.339Z,102157.59
2022-12-31T23:35:49.141Z,102164.78
2022-12-31T23:38:18.160Z,102168.09
2022-12-31T23:40:46.258Z,102168.94
2022-12-31T23:43:20.572Z,102159.59
2022-12-31T23:45:49.131Z,102159.31
2022-12-31T23:48:19.613Z,102141.69
2022-12-31T23:50:53.102Z,102153.09
2022-12-31T23:53:22.092Z,102150.13
2022-12-31T23:55:50.505Z,102151.78
2022-12-31T23:58:18.162Z,102142.16
